Time;durP1;ratioP1;P1;durP2;ratioP2;P2;SDS_P1;SDS_P2;PMS_P1;PMS_P2;Temp;Humidity;BMP_temperature;BMP_pressure;BME280_temperature;BME280_humidity;BME280_pressure;Samples;Min_cycle;Max_cycle;Signal;HPM_P1;HPM_P2
2022/09/26 00:00:44;;;;;;;;;;;;;;;14.57;80.74;100691.88;5054481;28;19979;-33
2022/09/26 00:03:11;;;;;;;;;;;;;;;14.57;80.01;100693.84;5053823;28;19936;-33
2022/09/26 00:05:39;;;;;;;;;;;;;;;14.57;80.88;100689.06;5054245;28;19970;-33
2022/09/26 00:08:07;;;;;;;;;;;;;;;14.57;81.88;100685.44;5054290;28;19924;-33
2022/09/26 00:10:35;;;;;;;;;;;;;;;14.58;81.61;100678.66;5068570;28;20320;-33
2022/09/26 00:13:02;;;;;;;;;;;;;;;14.58;80.44;100676.69;5054188;28;20297;-33
2022/09/26 00:15:31;;;;;;;;;;;;;;;14.58;80.99;100675.84;5054062;28;20340;-33
2022/09/26 00:17:59;;;;;;;;;;;;;;;14.56;79.96;100658.50;5053365;28;19925;-33
2022/09/26 00:20:26;;;;;;;;;;;;;;;14.56;80.18;100662.13;5053971;28;19986;-33
2022/09/26 00:22:54;;;;;;;;;;;;;;;14.54;78.91;100653.22;5053996;28;19924;-34
2022/09/26 00:25:21;;;;;;;;;;;;;;;14.55;80.21;100645.63;5052890;28;20027;-34
2022/09/26 00:27:49;;;;;;;;;;;;;;;14.56;80.49;100634.06;5053857;28;20381;-34
2022/09/26 00:30:16;;;;;;;;;;;;;;;14.58;82.56;100642.97;5053224;28;19937;-34
2022/09/26 00:32:46;;;;;;;;;;;;;;;14.57;80.54;100629.28;5053913;28;19975;-33
2022/09/26 00:35:13;;;;;;;;;;;;;;;14.56;80.65;100619.19;5053801;28;19933;-34
2022/09/26 00:37:41;;;;;;;;;;;;;;;14.54;82.75;100608.28;5052815;28;19928;-33
2022/09/26 00:40:09;;;;;;;;;;;;;;;14.51;83.28;100613.75;5053585;28;19983;-33
2022/09/26 00:42:36;;;;;;;;;;;;;;;14.46;85.04;100603.50;5035806;28;20391;-33
2022/09/26 00:45:05;;;;;;;;;;;;;;;14.40;84.54;100599.16;5052806;28;20361;-33
2022/09/26 00:47:36;;;;;;;;;;;;;;;14.35;86.21;100591.75;5053258;28;19925;-33
2022/09/26 00:50:07;;;;;;;;;;;;;;;14.27;88.81;100584.16;5053711;28;20008;-33
2022/09/26 00:52:38;;;;;;;;;;;;;;;14.20;88.71;100578.19;5053056;28;20420;-33
2022/09/26 00:55:07;;;;;;;;;;;;;;;14.16;89.28;100568.81;5035905;28;19931;-33
2022/09/26 00:57:37;;;;;;;;;;;;;;;14.11;91.21;100568.97;5053223;28;19929;-33
2022/09/26 01:00:06;;;;;;;;;;;;;;;14.07;91.66;100554.78;5032799;28;19925;-33
2022/09/26 01:02:34;;;;;;;;;;;;;;;14.04;93.37;100551.81;5048415;28;19924;-33
2022/09/26 01:05:03;;;;;;;;;;;;;;;13.99;92.66;100535.94;5053141;28;19929;-33
2022/09/26 01:07:33;;;;;;;;;;;;;;;13.97;92.59;100534.66;5033529;28;19925;-33
2022/09/26 01:10:02;;;;;;;;;;;;;;;13.93;91.56;100534.47;5068631;28;19929;-33
2022/09/26 01:12:31;;;;;;;;;;;;;;;13.97;92.84;100518.66;5052320;28;19932;-33
2022/09/26 01:14:59;;;;;;;;;;;;;;;13.98;91.83;100528.72;5053034;28;19925;-33
2022/09/26 01:17:27;;;;;;;;;;;;;;;13.98;87.92;100523.09;5052641;28;20297;-33
2022/09/26 01:20:03;;;;;;;;;;;;;;;14.01;88.96;100519.63;5052315;28;20390;-33
2022/09/26 01:22:43;;;;;;;;;;;;;;;14.06;88.47;100511.03;5034778;28;20369;-33
2022/09/26 01:25:18;;;;;;;;;;;;;;;14.09;87.27;100513.19;5035133;28;20369;-33
2022/09/26 01:27:57;;;;;;;;;;;;;;;14.12;88.20;100492.88;5067080;28;19929;-33
2022/09/26 01:30:28;;;;;;;;;;;;;;;14.10;86.12;100492.38;5052769;28;19925;-33
2022/09/26 01:33:10;;;;;;;;;;;;;;;14.14;84.97;100489.75;5052738;28;20036;-33
2022/09/26 01:35:53;;;;;;;;;;;;;;;14.18;86.81;100471.09;5032620;28;19940;-34
2022/09/26 01:38:25;;;;;;;;;;;;;;;14.19;86.83;100469.91;5029638;28;19940;-34
2022/09/26 01:41:03;;;;;;;;;;;;;;;14.24;86.35;100466.13;5033781;28;19929;-33
2022/09/26 01:43:34;;;;;;;;;;;;;;;14.25;86.49;100457.38;5067720;28;20340;-33
2022/09/26 01:46:06;;;;;;;;;;;;;;;14.27;83.02;100443.81;5034592;28;19933;-33
2022/09/26 01:48:36;;;;;;;;;;;;;;;14.30;82.93;100448.78;5051465;28;20022;-33
2022/09/26 01:51:08;;;;;;;;;;;;;;;14.31;84.05;100441.19;5034680;28;19986;-34
2022/09/26 01:53:40;;;;;;;;;;;;;;;14.33;84.11;100428.47;5034513;28;19929;-33
2022/09/26 01:56:10;;;;;;;;;;;;;;;14.37;83.95;100431.44;5033662;28;19975;-33
2022/09/26 01:58:41;;;;;;;;;;;;;;;14.38;83.78;100421.84;5067349;28;19979;-33
2022/09/26 02:01:12;;;;;;;;;;;;;;;14.39;84.48;100415.88;5052038;28;19929;-33
2022/09/26 02:03:43;;;;;;;;;;;;;;;14.40;84.36;100397.03;5033528;28;20420;-33
2022/09/26 02:06:13;;;;;;;;;;;;;;;14.42;84.73;100392.78;5034196;28;19963;-33
2022/09/26 02:08:44;;;;;;;;;;;;;;;14.45;85.25;100394.91;5066566;28;19925;-33
2022/09/26 02:11:14;;;;;;;;;;;;;;;14.45;85.04;100399.72;5034050;28;19929;-33
2022/09/26 02:13:45;;;;;;;;;;;;;;;14.47;86.02;100388.97;5067067;28;19932;-34
2022/09/26 02:16:17;;;;;;;;;;;;;;;14.51;86.12;100389.13;5033665;28;19947;-33
2022/09/26 02:18:46;;;;;;;;;;;;;;;14.52;88.14;100371.94;5067090;28;20019;-34
2022/09/26 02:21:16;;;;;;;;;;;;;;;14.48;85.07;100377.41;5067131;28;19925;-33
2022/09/26 02:23:44;;;;;;;;;;;;;;;14.53;85.73;100369.97;5033034;28;19948;-34
2022/09/26 02:26:11;;;;;;;;;;;;;;;14.53;84.09;100364.34;5066899;28;19924;-34
2022/09/26 02:28:39;;;;;;;;;;;;;;;14.55;86.45;100359.22;5067084;28;19925;-33
2022/09/26 02:31:10;;;;;;;;;;;;;;;14.56;87.91;100367.31;5065933;28;19974;-33
2022/09/26 02:33:39;;;;;;;;;;;;;;;14.61;86.50;100347.44;5033876;28;19929;-34
2022/09/26 02:36:09;;;;;;;;;;;;;;;14.60;85.51;100336.53;5066654;28;19925;-34
2022/09/26 02:38:37;;;;;;;;;;;;;;;14.59;85.63;100324.47;5050556;28;19925;-34
2022/09/26 02:41:28;;;;;;;;;;;;;;;14.59;83.38;100332.09;5051629;28;20029;-34
2022/09/26 02:44:02;;;;;;;;;;;;;;;14.61;82.11;100318.53;5051147;28;19924;-34
2022/09/26 02:46:50;;;;;;;;;;;;;;;14.61;83.70;100310.09;5033434;28;19946;-33
2022/09/26 02:49:28;;;;;;;;;;;;;;;14.65;85.44;100302.66;5051756;28;20311;-33
2022/09/26 02:52:02;;;;;;;;;;;;;;;14.67;83.67;100297.53;5032013;28;19924;-33
2022/09/26 02:54:35;;;;;;;;;;;;;;;14.65;83.42;100281.00;5067137;28;19929;-32
2022/09/26 02:57:10;;;;;;;;;;;;;;;14.69;86.16;100293.22;5066734;28;20015;-33
2022/09/26 02:59:46;;;;;;;;;;;;;;;14.67;88.10;100289.91;5066190;28;19928;-33
2022/09/26 03:02:16;;;;;;;;;;;;;;;14.66;86.49;100276.22;5066914;28;20003;-33
2022/09/26 03:05:00;;;;;;;;;;;;;;;14.64;84.95;100275.72;5032782;28;19931;-33
2022/09/26 03:07:30;;;;;;;;;;;;;;;14.60;86.49;100275.59;5050496;28;19925;-33
2022/09/26 03:10:00;;;;;;;;;;;;;;;14.60;86.66;100250.31;5066523;28;20023;-33
2022/09/26 03:12:31;;;;;;;;;;;;;;;14.64;87.72;100256.06;5065744;28;19978;-33
2022/09/26 03:15:00;;;;;;;;;;;;;;;14.64;90.19;100240.03;5066842;28;19995;-33
2022/09/26 03:17:28;;;;;;;;;;;;;;;14.65;89.50;100241.69;5066244;28;19924;-33
2022/09/26 03:20:01;;;;;;;;;;;;;;;14.62;90.20;100250.78;5065760;28;19925;-33
2022/09/26 03:22:30;;;;;;;;;;;;;;;14.60;90.84;100227.84;5065752;28;20397;-33
2022/09/26 03:24:59;;;;;;;;;;;;;;;14.53;89.37;100227.59;5033498;28;19935;-33
2022/09/26 03:27:27;;;;;;;;;;;;;;;14.53;90.39;100216.34;5031481;28;19964;-33
2022/09/26 03:29:58;;;;;;;;;;;;;;;14.51;93.86;100235.53;5032319;28;19925;-33
2022/09/26 03:32:27;;;;;;;;;;;;;;;14.51;94.14;100203.81;5035518;28;19931;-33
2022/09/26 03:34:57;;;;;;;;;;;;;;;14.50;95.20;100188.13;5035015;28;19951;-33
2022/09/26 03:37:25;;;;;;;;;;;;;;;14.49;95.25;100198.53;5036538;28;20318;-33
2022/09/26 03:39:52;;;;;;;;;;;;;;;14.42;96.43;100171.00;5055046;28;19937;-32
2022/09/26 03:42:36;;;;;;;;;;;;;;;14.35;97.99;100170.72;5036512;28;19936;-33
2022/09/26 03:45:06;;;;;;;;;;;;;;;14.27;100.00;100176.38;5036753;28;19925;-33
2022/09/26 03:47:55;;;;;;;;;;;;;;;14.24;100.00;100174.25;5053163;28;20019;-33
2022/09/26 03:50:25;;;;;;;;;;;;;;;14.21;100.00;100164.53;5069875;28;19925;-33
2022/09/26 03:52:52;;;;;;;;;;;;;;;14.14;100.00;100164.25;5054695;28;20042;-33
2022/09/26 03:55:20;;;;;;;;;;;;;;;14.05;100.00;100153.09;5053549;28;19987;-33
2022/09/26 03:57:48;;;;;;;;;;;;;;;13.97;100.00;100150.34;5054112;28;20385;-33
2022/09/26 04:00:25;;;;;;;;;;;;;;;13.95;100.00;100147.88;5036699;28;20384;-33
2022/09/26 04:02:53;;;;;;;;;;;;;;;13.97;100.00;100125.94;5035558;28;19925;-33
2022/09/26 04:05:42;;;;;;;;;;;;;;;13.95;100.00;100128.25;5053902;28;20364;-34
2022/09/26 04:08:11;;;;;;;;;;;;;;;13.88;100.00;100138.34;5035281;28;20019;-34
2022/09/26 04:10:40;;;;;;;;;;;;;;;13.79;100.00;100130.78;5036383;28;19933;-34
2022/09/26 04:13:08;;;;;;;;;;;;;;;13.74;100.00;100121.78;5054027;28;19975;-34
2022/09/26 04:15:36;;;;;;;;;;;;;;;13.74;100.00;100116.16;5053316;28;20004;-34
2022/09/26 04:18:08;;;;;;;;;;;;;;;13.64;100.00;100117.34;5036112;28;20432;-33
2022/09/26 04:20:36;;;;;;;;;;;;;;;13.58;100.00;100109.50;5036012;28;19925;-33
2022/09/26 04:23:05;;;;;;;;;;;;;;;13.62;100.00;100090.81;5034999;28;19968;-34
2022/09/26 04:25:36;;;;;;;;;;;;;;;13.70;100.00;100092.75;5069256;28;20376;-33
2022/09/26 04:28:04;;;;;;;;;;;;;;;13.79;100.00;100057.06;5069458;28;19932;-33
2022/09/26 04:30:31;;;;;;;;;;;;;;;13.86;100.00;100068.56;5068199;28;19925;-33
2022/09/26 04:33:01;;;;;;;;;;;;;;;13.87;100.00;100059.00;5068962;28;19925;-33
2022/09/26 04:35:31;;;;;;;;;;;;;;;13.92;100.00;100044.78;5053678;28;19960;-33
2022/09/26 04:37:59;;;;;;;;;;;;;;;13.97;100.00;100036.16;5052933;28;19929;-33
2022/09/26 04:40:29;;;;;;;;;;;;;;;14.00;100.00;100038.25;5035503;28;20019;-33
2022/09/26 04:43:02;;;;;;;;;;;;;;;14.07;100.00;100027.31;5035686;28;19925;-33
2022/09/26 04:45:30;;;;;;;;;;;;;;;14.10;100.00;100025.81;5034536;28;19928;-33
2022/09/26 04:47:58;;;;;;;;;;;;;;;14.14;100.00;99993.94;5035354;28;19957;-33
2022/09/26 04:50:46;;;;;;;;;;;;;;;14.18;100.00;100001.66;5052013;28;19925;-33
2022/09/26 04:53:13;;;;;;;;;;;;;;;14.21;100.00;99986.91;5053602;28;19933;-33
2022/09/26 04:55:53;;;;;;;;;;;;;;;14.20;100.00;99988.09;5034935;28;19971;-32
2022/09/26 04:58:20;;;;;;;;;;;;;;;14.20;100.00;99988.09;5052563;28;19933;-33
2022/09/26 05:00:48;;;;;;;;;;;;;;;14.23;100.00;99973.38;5033356;28;19929;-34
2022/09/26 05:03:27;;;;;;;;;;;;;;;14.27;100.00;99965.91;5033739;28;19940;-33
2022/09/26 05:05:55;;;;;;;;;;;;;;;14.24;100.00;99956.19;5033121;28;20011;-33
2022/09/26 05:08:23;;;;;;;;;;;;;;;14.24;100.00;99956.19;5051048;28;19956;-33
2022/09/26 05:10:53;;;;;;;;;;;;;;;14.24;100.00;99938.53;5063941;28;19951;-33
2022/09/26 05:13:21;;;;;;;;;;;;;;;14.29;100.00;99933.53;5050877;28;20016;-33
2022/09/26 05:15:52;;;;;;;;;;;;;;;14.33;100.00;99933.66;5052824;28;19932;-33
2022/09/26 05:18:22;;;;;;;;;;;;;;;14.31;100.00;99921.97;5035000;28;19929;-33
2022/09/26 05:20:49;;;;;;;;;;;;;;;14.27;100.00;99909.78;5051838;28;19924;-33
2022/09/26 05:26:18;;;;;;;;;;;;;;;14.27;100.00;99909.78;5034666;28;19929;-33
2022/09/26 05:26:19;;;;;;;;;;;;;;;14.30;100.00;99909.09;5033715;28;19925;-32
2022/09/26 05:28:48;;;;;;;;;;;;;;;14.32;100.00;99901.16;5068259;28;20695;-34
2022/09/26 05:31:15;;;;;;;;;;;;;;;14.31;100.00;99886.28;5034272;28;19990;-34
2022/09/26 05:33:45;;;;;;;;;;;;;;;14.33;100.00;99883.13;5066801;28;19932;-34
2022/09/26 05:36:14;;;;;;;;;;;;;;;14.34;100.00;99888.41;5034615;28;19928;-33
2022/09/26 05:38:42;;;;;;;;;;;;;;;14.37;100.00;99876.50;5052309;28;20374;-33
2022/09/26 05:41:09;;;;;;;;;;;;;;;14.36;100.00;99862.81;5033407;28;20019;-33
2022/09/26 05:43:38;;;;;;;;;;;;;;;14.37;100.00;99850.41;5034482;28;19928;-33
2022/09/26 05:46:10;;;;;;;;;;;;;;;14.37;98.53;99858.81;5034530;28;20336;-33
2022/09/26 05:48:45;;;;;;;;;;;;;;;14.38;98.80;99858.47;5067122;28;19924;-33
2022/09/26 05:51:20;;;;;;;;;;;;;;;14.40;98.66;99860.91;5034011;28;19951;-33
2022/09/26 05:53:48;;;;;;;;;;;;;;;14.42;100.00;99861.41;5032639;28;19939;-33
2022/09/26 05:56:19;;;;;;;;;;;;;;;14.47;100.00;99852.78;5034030;28;19925;-34
2022/09/26 05:59:00;;;;;;;;;;;;;;;14.46;100.00;99867.97;5051946;28;19964;-34
2022/09/26 06:01:34;;;;;;;;;;;;;;;14.46;100.00;99863.19;5041827;28;19925;-34
2022/09/26 06:04:14;;;;;;;;;;;;;;;14.50;100.00;99862.50;5066227;28;20011;-34
2022/09/26 06:07:01;;;;;;;;;;;;;;;14.48;100.00;99846.81;5032657;28;19928;-34
2022/09/26 06:09:30;;;;;;;;;;;;;;;14.52;100.00;99843.31;5031598;28;19951;-34
2022/09/26 06:12:22;;;;;;;;;;;;;;;14.52;100.00;99846.94;5032383;28;19980;-34
2022/09/26 06:14:52;;;;;;;;;;;;;;;14.50;100.00;99846.47;5049769;28;19924;-34
2022/09/26 06:17:20;;;;;;;;;;;;;;;14.53;100.00;99839.34;5050098;28;19926;-34
2022/09/26 06:19:47;;;;;;;;;;;;;;;14.52;100.00;99843.31;5047908;28;19955;-34
2022/09/26 06:22:15;;;;;;;;;;;;;;;14.48;100.00;99840.38;5049735;28;20442;-34
2022/09/26 06:24:43;;;;;;;;;;;;;;;14.48;100.00;99837.56;5032627;28;19935;-34
2022/09/26 06:27:14;;;;;;;;;;;;;;;14.51;100.00;99827.63;5065857;28;20361;-34
2022/09/26 06:29:42;;;;;;;;;;;;;;;14.50;100.00;99835.22;5065157;28;19925;-34
2022/09/26 06:32:11;;;;;;;;;;;;;;;14.50;100.00;99817.56;5065467;28;19936;-33
2022/09/26 06:34:57;;;;;;;;;;;;;;;14.44;100.00;99826.22;5040396;28;19939;-33
2022/09/26 06:37:41;;;;;;;;;;;;;;;14.50;100.00;99815.59;5064458;28;19924;-33
2022/09/26 06:40:10;;;;;;;;;;;;;;;14.53;100.00;99802.84;5050369;28;19932;-33
2022/09/26 06:42:38;;;;;;;;;;;;;;;14.53;100.00;99814.88;5032357;28;19924;-33
2022/09/26 06:45:26;;;;;;;;;;;;;;;14.53;100.00;99789.63;5056240;28;19925;-33
2022/09/26 06:48:17;;;;;;;;;;;;;;;14.53;100.00;99788.81;5049909;28;19928;-34
2022/09/26 06:51:13;;;;;;;;;;;;;;;14.53;100.00;99786.00;5048508;28;20365;-34
2022/09/26 06:53:41;;;;;;;;;;;;;;;14.53;100.00;99769.97;5065356;28;19928;-34
2022/09/26 06:56:10;;;;;;;;;;;;;;;14.51;100.00;99769.50;5032259;28;20334;-33
2022/09/26 06:58:38;;;;;;;;;;;;;;;14.44;100.00;99775.69;5049241;28;19935;-34
2022/09/26 07:01:07;;;;;;;;;;;;;;;14.41;100.00;99758.72;5049748;28;19936;-34
2022/09/26 07:03:54;;;;;;;;;;;;;;;14.37;100.00;99753.00;5050409;28;20031;-34
2022/09/26 07:06:37;;;;;;;;;;;;;;;14.32;100.00;99766.44;5035974;28;20027;-34
2022/09/26 07:09:06;;;;;;;;;;;;;;;14.18;100.00;99768.78;5036160;28;19929;-33
2022/09/26 07:11:51;;;;;;;;;;;;;;;14.09;100.00;99760.47;5053352;28;19925;-34
2022/09/26 07:14:38;;;;;;;;;;;;;;;13.99;100.00;99763.72;5054192;28;20389;-34
2022/09/26 07:17:18;;;;;;;;;;;;;;;13.93;100.00;99765.94;5036326;28;20329;-34
2022/09/26 07:20:09;;;;;;;;;;;;;;;13.88;100.00;99766.16;5066471;28;19928;-34
2022/09/26 07:23:03;;;;;;;;;;;;;;;13.77;100.00;99748.97;5032656;28;19929;-35
2022/09/26 07:25:32;;;;;;;;;;;;;;;13.73;100.00;99744.41;5068478;28;19978;-35
2022/09/26 07:28:01;;;;;;;;;;;;;;;13.71;100.00;99747.56;5015939;28;20293;-35
2022/09/26 07:30:41;;;;;;;;;;;;;;;13.62;100.00;99746.81;5032449;28;20015;-35
2022/09/26 07:33:32;;;;;;;;;;;;;;;13.54;100.00;99752.53;5031778;28;20357;-34
2022/09/26 07:36:07;;;;;;;;;;;;;;;13.49;100.00;99742.38;5033562;28;20024;-34
2022/09/26 07:38:35;;;;;;;;;;;;;;;13.48;100.00;99737.09;5035854;28;19932;-34
2022/09/26 07:41:03;;;;;;;;;;;;;;;13.51;100.00;99748.44;5034757;28;19978;-35
2022/09/26 07:43:32;;;;;;;;;;;;;;;13.53;100.00;99734.09;5016124;28;20381;-34
2022/09/26 07:52:10;;;;;;;;;;;;;;;13.58;100.00;99729.09;5035599;28;20019;-34
2022/09/26 07:55:17;;;;;;;;;;;;;;;13.62;100.00;99723.56;4990662;28;19930;-34
2022/09/26 07:57:51;;;;;;;;;;;;;;;13.64;100.00;99724.88;4991268;28;20391;-34
2022/09/26 08:00:30;;;;;;;;;;;;;;;13.68;100.00;99723.03;5012556;28;20019;-34
2022/09/26 08:03:05;;;;;;;;;;;;;;;13.67;100.00;99715.78;5036317;28;19925;-34
2022/09/26 08:05:37;;;;;;;;;;;;;;;13.67;100.00;99717.75;5036321;28;20015;-34
2022/09/26 08:08:06;;;;;;;;;;;;;;;13.66;100.00;99708.53;5068717;28;19964;-33
2022/09/26 08:10:52;;;;;;;;;;;;;;;13.70;100.00;99717.06;5054210;28;20407;-34
2022/09/26 08:13:38;;;;;;;;;;;;;;;13.68;100.00;99702.56;5054779;28;19946;-34
2022/09/26 08:16:19;;;;;;;;;;;;;;;13.68;100.00;99700.59;5034678;28;20296;-34
2022/09/26 08:18:47;;;;;;;;;;;;;;;13.71;100.00;99713.09;5036339;28;19929;-34
2022/09/26 08:21:14;;;;;;;;;;;;;;;13.70;100.00;99697.44;5036061;28;19935;-34
2022/09/26 08:23:45;;;;;;;;;;;;;;;13.72;100.00;99698.72;5035361;28;19928;-34
2022/09/26 08:26:37;;;;;;;;;;;;;;;13.75;100.00;99686.81;5022362;28;19925;-34
2022/09/26 08:29:16;;;;;;;;;;;;;;;13.73;100.00;99682.72;5035499;28;20364;-34
2022/09/26 08:31:46;;;;;;;;;;;;;;;13.73;100.00;99682.72;5035825;28;20010;-34
2022/09/26 08:34:14;;;;;;;;;;;;;;;13.72;100.00;99667.06;5053842;28;20301;-34
2022/09/26 08:36:50;;;;;;;;;;;;;;;13.73;100.00;99671.50;5034877;28;19924;-34
2022/09/26 08:39:33;;;;;;;;;;;;;;;13.77;100.00;99670.47;5036059;28;19936;-34
2022/09/26 08:42:32;;;;;;;;;;;;;;;13.78;100.00;99663.69;5053962;28;19935;-34
2022/09/26 08:49:09;;;;;;;;;;;;;;;13.86;100.00;99652.69;5039678;28;19940;-34
2022/09/26 08:51:39;;;;;;;;;;;;;;;13.87;100.00;99652.34;5052530;28;19964;-34
2022/09/26 08:54:10;;;;;;;;;;;;;;;13.90;100.00;99664.84;5032182;28;19944;-35
2022/09/26 08:56:43;;;;;;;;;;;;;;;13.91;100.00;99664.50;5034739;28;20423;-34
2022/09/26 08:59:14;;;;;;;;;;;;;;;13.91;100.00;99661.69;5035273;28;20347;-34
2022/09/26 09:01:43;;;;;;;;;;;;;;;13.90;100.00;99664.84;5068899;28;20339;-34
2022/09/26 09:04:17;;;;;;;;;;;;;;;13.84;100.00;99666.25;5067686;28;19979;-34
2022/09/26 09:06:46;;;;;;;;;;;;;;;13.84;100.00;99664.25;5068769;28;19931;-34
2022/09/26 09:09:15;;;;;;;;;;;;;;;13.88;100.00;99661.59;5068308;28;19925;-34
2022/09/26 09:12:08;;;;;;;;;;;;;;;13.96;100.00;99664.28;5052462;28;19948;-34
2022/09/26 09:14:44;;;;;;;;;;;;;;;14.04;100.00;99659.69;5068071;28;19931;-33
2022/09/26 09:17:29;;;;;;;;;;;;;;;14.12;100.00;99662.41;5068228;28;20377;-34
2022/09/26 09:20:32;;;;;;;;;;;;;;;14.19;100.00;99669.41;5037163;28;19978;-34
2022/09/26 09:23:42;;;;;;;;;;;;;;;14.22;100.00;99663.06;5057224;28;19956;-32
2022/09/26 09:26:11;;;;;;;;;;;;;;;14.24;100.00;99657.94;5067311;28;20011;-33
2022/09/26 09:29:08;;;;;;;;;;;;;;;14.29;100.00;99655.69;5033652;28;19925;-34
2022/09/26 09:31:40;;;;;;;;;;;;;;;14.37;100.00;99662.38;5067772;28;19936;-33
2022/09/26 09:34:32;;;;;;;;;;;;;;;14.44;100.00;99656.97;5034484;28;20301;-33
2022/09/26 09:37:21;;;;;;;;;;;;;;;14.54;100.00;99653.69;5032716;28;19936;-33
2022/09/26 09:40:11;;;;;;;;;;;;;;;14.70;100.00;99653.75;5030888;28;19931;-33
2022/09/26 09:42:51;;;;;;;;;;;;;;;14.89;100.00;99658.72;5034527;28;19933;-34
2022/09/26 09:45:24;;;;;;;;;;;;;;;15.00;100.00;99652.22;5034302;28;19928;-34
2022/09/26 09:47:52;;;;;;;;;;;;;;;15.12;100.00;99654.16;5033466;28;19936;-34
2022/09/26 09:50:30;;;;;;;;;;;;;;;15.21;100.00;99646.38;5034365;28;19929;-33
2022/09/26 09:53:08;;;;;;;;;;;;;;;15.28;100.00;99648.56;5013845;28;19929;-34
2022/09/26 09:55:46;;;;;;;;;;;;;;;15.32;100.00;99644.69;5032191;28;19964;-34
2022/09/26 09:58:32;;;;;;;;;;;;;;;15.34;100.00;99642.34;5034382;28;19928;-34
2022/09/26 10:01:08;;;;;;;;;;;;;;;15.38;100.00;99646.06;5033410;28;20347;-34
2022/09/26 10:03:40;;;;;;;;;;;;;;;15.42;100.00;99638.53;5052387;28;19925;-33
2022/09/26 10:06:10;;;;;;;;;;;;;;;15.49;100.00;99633.09;5033772;28;19925;-38
2022/09/26 10:09:04;;;;;;;;;;;;;;;15.67;100.00;99638.38;5033772;28;20017;-34
2022/09/26 10:12:13;;;;;;;;;;;;;;;15.77;100.00;99630.22;5051903;28;20400;-34
2022/09/26 10:15:05;;;;;;;;;;;;;;;15.81;100.00;99631.09;5048245;28;19929;-34
2022/09/26 10:18:20;;;;;;;;;;;;;;;15.91;100.00;99620.50;4990192;28;20465;-34
2022/09/26 10:21:07;;;;;;;;;;;;;;;16.09;100.00;99625.34;4978329;28;20079;-34
2022/09/26 10:23:36;;;;;;;;;;;;;;;16.18;100.00;99622.34;5029372;28;19995;-33
2022/09/26 10:26:09;;;;;;;;;;;;;;;16.18;100.00;99616.72;5066876;28;19932;-34
2022/09/26 10:28:44;;;;;;;;;;;;;;;16.18;100.00;99619.53;5033050;28;19932;-34
2022/09/26 10:31:21;;;;;;;;;;;;;;;16.20;100.00;99617.97;5066842;28;20015;-33
2022/09/26 10:34:21;;;;;;;;;;;;;;;16.27;100.00;99622.13;5033313;28;19925;-33
2022/09/26 10:36:49;;;;;;;;;;;;;;;16.18;100.00;99622.34;5050724;28;19925;-33
2022/09/26 10:42:13;;;;;;;;;;;;;;;16.16;100.00;99625.53;5032462;28;19982;-34
2022/09/26 10:44:41;;;;;;;;;;;;;;;16.10;100.00;99629.00;5033664;28;20023;-34
2022/09/26 10:47:23;;;;;;;;;;;;;;;16.02;100.00;99625.19;5051139;28;19945;-34
2022/09/26 10:50:12;;;;;;;;;;;;;;;15.96;100.00;99637.09;5050557;28;19931;-34
2022/09/26 10:53:02;;;;;;;;;;;;;;;15.97;100.00;99619.84;5049477;28;20025;-34
2022/09/26 10:55:33;;;;;;;;;;;;;;;16.08;100.00;99622.91;5065695;28;19928;-34
2022/09/26 10:58:04;;;;;;;;;;;;;;;16.11;100.00;99625.81;5031163;28;19928;-36
2022/09/26 11:00:40;;;;;;;;;;;;;;;16.12;100.00;99624.63;5032177;28;19929;-34
2022/09/26 11:03:16;;;;;;;;;;;;;;;16.12;100.00;99621.81;5047911;28;20002;-37
2022/09/26 11:06:22;;;;;;;;;;;;;;;16.08;100.00;99622.91;5026158;28;19933;-40
2022/09/26 11:08:55;;;;;;;;;;;;;;;16.07;100.00;99618.47;5032034;28;19924;-40
2022/09/26 11:11:42;;;;;;;;;;;;;;;16.07;100.00;99613.66;5047270;28;19929;-42
2022/09/26 11:14:10;;;;;;;;;;;;;;;16.07;100.00;99616.47;5031849;28;20008;-39
2022/09/26 11:16:49;;;;;;;;;;;;;;;16.01;100.00;99612.28;5031951;28;20405;-38
2022/09/26 11:19:21;;;;;;;;;;;;;;;15.93;100.00;99621.75;5031172;28;19925;-42
2022/09/26 11:21:54;;;;;;;;;;;;;;;15.91;100.00;99618.50;5065089;28;19982;-42
2022/09/26 11:24:25;;;;;;;;;;;;;;;15.94;100.00;99622.59;5031350;28;19928;-42
2022/09/26 11:27:03;;;;;;;;;;;;;;;15.96;100.00;99614.59;5031796;28;19928;-43
2022/09/26 11:29:38;;;;;;;;;;;;;;;15.93;100.00;99620.94;5031894;28;19928;-43
2022/09/26 11:32:13;;;;;;;;;;;;;;;15.85;100.00;99617.94;5031067;28;19929;-41
2022/09/26 11:35:01;;;;;;;;;;;;;;;15.78;100.00;99609.34;5039321;28;19930;-42
2022/09/26 11:37:44;;;;;;;;;;;;;;;15.74;100.00;99614.06;5031925;28;20047;-43
2022/09/26 11:40:22;;;;;;;;;;;;;;;15.67;100.00;99607.44;5021019;28;20343;-41
2022/09/26 11:43:02;;;;;;;;;;;;;;;15.61;100.00;99611.69;5065161;28;20038;-42
2022/09/26 11:45:36;;;;;;;;;;;;;;;15.61;100.00;99614.50;5031148;28;19928;-42
2022/09/26 11:49:02;;;;;;;;;;;;;;;15.67;100.00;99618.69;4996678;28;19925;-41
2022/09/26 11:52:06;;;;;;;;;;;;;;;15.89;100.00;99614.41;5053085;28;19929;-41
2022/09/26 11:54:45;;;;;;;;;;;;;;;16.27;100.00;99614.50;5053386;28;19929;-41
2022/09/26 11:57:20;;;;;;;;;;;;;;;16.53;100.00;99611.06;5054749;28;19929;-41
2022/09/26 11:59:58;;;;;;;;;;;;;;;16.76;100.00;99611.19;5053226;28;20389;-41
2022/09/26 12:02:39;;;;;;;;;;;;;;;16.95;100.00;99611.16;5054742;28;19979;-38
2022/09/26 12:05:23;;;;;;;;;;;;;;;17.24;100.00;99604.03;5054091;28;19933;-39
2022/09/26 12:08:00;;;;;;;;;;;;;;;17.33;100.00;99607.44;5054044;28;19978;-41
2022/09/26 12:10:33;;;;;;;;;;;;;;;17.28;100.00;99604.94;5053989;28;19924;-42
2022/09/26 12:13:15;;;;;;;;;;;;;;;17.16;100.00;99605.13;5054494;28;19994;-44
2022/09/26 12:15:53;;;;;;;;;;;;;;;17.03;100.00;99609.28;5053383;28;20263;-39
2022/09/26 12:18:25;;;;;;;;;;;;;;;16.93;100.00;99604.25;5054559;28;20435;-44
2022/09/26 12:21:00;;;;;;;;;;;;;;;16.89;100.00;99601.38;5052716;28;19925;-42
2022/09/26 12:23:31;;;;;;;;;;;;;;;16.82;100.00;99596.41;5052830;28;20405;-41
2022/09/26 12:26:07;;;;;;;;;;;;;;;16.77;100.00;99593.09;5053624;28;19928;-43
2022/09/26 12:28:42;;;;;;;;;;;;;;;16.76;100.00;99586.63;5053070;28;20526;-43
2022/09/26 12:31:12;;;;;;;;;;;;;;;16.76;100.00;99594.28;5053616;28;20281;-40
2022/09/26 12:33:54;;;;;;;;;;;;;;;16.78;100.00;99586.28;5053730;28;19928;-42
2022/09/26 12:36:30;;;;;;;;;;;;;;;16.77;100.00;99582.63;5051635;28;19932;-43
2022/09/26 12:39:08;;;;;;;;;;;;;;;16.73;100.00;99586.56;5054072;28;20313;-37
2022/09/26 12:41:42;;;;;;;;;;;;;;;16.70;99.40;99582.47;5052511;28;19929;-39
2022/09/26 12:44:23;;;;;;;;;;;;;;;16.67;97.93;99577.59;5054021;28;19925;-38
2022/09/26 12:46:59;;;;;;;;;;;;;;;16.67;97.14;99579.59;5049525;28;19925;-38
2022/09/26 12:49:36;;;;;;;;;;;;;;;16.69;97.26;99574.41;5035091;28;20281;-43
2022/09/26 12:52:07;;;;;;;;;;;;;;;16.78;98.08;99567.38;5050133;28;19925;-42
2022/09/26 12:54:50;;;;;;;;;;;;;;;16.97;98.76;99566.53;5053753;28;19994;-43
2022/09/26 12:57:26;;;;;;;;;;;;;;;17.10;98.62;99573.59;5043825;28;19986;-40
2022/09/26 13:00:01;;;;;;;;;;;;;;;17.19;98.34;99564.88;5053307;28;19931;-40
2022/09/26 13:02:34;;;;;;;;;;;;;;;17.27;97.56;99569.47;5049391;28;19925;-42
2022/09/26 13:05:11;;;;;;;;;;;;;;;17.39;98.06;99571.28;5052508;28;19928;-43
2022/09/26 13:07:47;;;;;;;;;;;;;;;17.46;95.38;99562.94;5050623;28;19928;-41
2022/09/26 13:10:21;;;;;;;;;;;;;;;17.42;91.24;99560.06;5052630;28;19928;-41
2022/09/26 13:13:01;;;;;;;;;;;;;;;17.37;90.01;99568.84;5050578;28;19928;-42
2022/09/26 13:15:34;;;;;;;;;;;;;;;17.34;90.88;99566.78;5052995;28;19929;-43
2022/09/26 13:18:06;;;;;;;;;;;;;;;17.40;91.89;99565.25;5052268;28;20381;-42
2022/09/26 13:20:39;;;;;;;;;;;;;;;17.39;91.94;99574.09;5053567;28;19983;-43
2022/09/26 13:23:10;;;;;;;;;;;;;;;17.33;92.36;99576.44;5050053;28;20344;-40
2022/09/26 13:25:43;;;;;;;;;;;;;;;17.27;91.78;99575.09;5052338;28;19929;-41
2022/09/26 13:28:19;;;;;;;;;;;;;;;17.22;92.17;99570.59;5053070;28;19929;-42